createdAt,value
2018-12-26T00:00:52.977Z,95891.52
2018-12-26T00:03:25.812Z,95891.17
2018-12-26T00:05:57.186Z,95893.72
2018-12-26T00:08:28.581Z,95893.33
2018-12-26T00:11:02.791Z,95894.75
2018-12-26T00:13:35.119Z,95901.59
2018-12-26T00:16:06.249Z,95891.28
2018-12-26T00:18:37.695Z,95899.23
2018-12-26T00:21:12.664Z,95898.08
2018-12-26T00:23:43.976Z,95901.90
2018-12-26T00:26:16.967Z,95905.72
2018-12-26T00:28:49.884Z,95908.03
2018-12-26T00:31:22.676Z,95901.66
2018-12-26T00:33:53.934Z,95913.47
2018-12-26T00:36:27.018Z,95914.09
2018-12-26T00:38:58.279Z,95915.83
2018-12-26T00:41:34.312Z,95915.02
2018-12-26T00:44:08.751Z,95918.48
2018-12-26T00:46:39.997Z,95922.05
2018-12-26T00:49:11.267Z,95921.93
2018-12-26T00:51:43.928Z,95918.22
2018-12-26T00:54:15.163Z,95917.33
2018-12-26T00:56:46.459Z,95911.97
2018-12-26T00:59:18.539Z,95911.42
2018-12-26T01:01:51.392Z,95902.16
2018-12-26T01:04:22.756Z,95895.25
2018-12-26T01:06:55.994Z,95902.52
2018-12-26T01:09:26.823Z,95896.49
2018-12-26T01:11:58.046Z,95899.30
2018-12-26T01:14:29.247Z,95895.83
2018-12-26T01:17:00.488Z,95890.02
2018-12-26T01:19:33.617Z,95891.86
2018-12-26T01:22:05.860Z,95893.05
2018-12-26T01:24:38.682Z,95896.20
2018-12-26T01:27:09.929Z,95903.36
2018-12-26T01:29:42.362Z,95907.41
2018-12-26T01:32:13.456Z,95902.00
2018-12-26T01:34:46.711Z,95902.66
2018-12-26T01:37:19.573Z,95893.20
2018-12-26T01:39:52.720Z,95887.64
2018-12-26T01:42:25.901Z,95884.17
2018-12-26T01:44:57.105Z,95881.52
2018-12-26T01:47:30.061Z,95873.17
2018-12-26T01:50:01.441Z,95869.02
2018-12-26T01:52:36.892Z,95868.89
2018-12-26T01:55:08.363Z,95875.38
2018-12-26T01:57:39.422Z,95871.67
2018-12-26T02:00:12.560Z,95866.70
2018-12-26T02:02:46.135Z,95867.85
2018-12-26T02:05:17.301Z,95870.63
2018-12-26T02:07:52.157Z,95876.84
2018-12-26T02:10:25.586Z,95868.17
2018-12-26T02:12:58.242Z,95881.94
2018-12-26T02:15:29.443Z,95886.11
2018-12-26T02:18:00.763Z,95877.80
2018-12-26T02:20:33.487Z,95871.18
2018-12-26T02:23:04.836Z,95862.03
2018-12-26T02:25:38.486Z,95861.92
2018-12-26T02:28:11.396Z,95867.36
2018-12-26T02:30:44.018Z,95874.53
2018-12-26T02:33:15.161Z,95859.84
2018-12-26T02:35:47.367Z,95859.64
2018-12-26T02:38:20.026Z,95851.50
2018-12-26T02:40:51.549Z,95856.94
2018-12-26T02:43:22.701Z,95859.48
2018-12-26T02:45:53.874Z,95860.76
2018-12-26T02:48:27.920Z,95859.45
2018-12-26T02:51:00.931Z,95861.30
2018-12-26T02:53:45.105Z,95851.34
2018-12-26T02:56:12.526Z,95854.27
2018-12-26T02:58:46.610Z,95853.47
2018-12-26T03:01:19.348Z,95861.77
2018-12-26T03:03:54.987Z,95858.56
2018-12-26T03:06:29.268Z,95867.81
2018-12-26T03:09:01.789Z,95858.45
2018-12-26T03:11:34.161Z,95860.53
2018-12-26T03:14:08.971Z,95856.59
2018-12-26T03:16:43.833Z,95857.25
2018-12-26T03:19:15.178Z,95862.58
2018-12-26T03:21:47.397Z,95861.87
2018-12-26T03:24:22.786Z,95859.09
2018-12-26T03:26:56.451Z,95860.83
2018-12-26T03:29:32.436Z,95860.38
2018-12-26T03:32:05.610Z,95871.56
2018-12-26T03:34:45.023Z,95880.13
2018-12-26T03:37:11.296Z,95883.88
2018-12-26T03:39:45.793Z,95890.82
2018-12-26T03:42:18.802Z,95883.88
2018-12-26T03:44:52.048Z,95884.07
2018-12-26T03:47:26.397Z,95886.63
2018-12-26T03:49:58.890Z,95880.63
2018-12-26T03:52:30.197Z,95887.69
2018-12-26T03:55:03.405Z,95885.64
2018-12-26T03:57:36.993Z,95893.13
2018-12-26T04:00:12.574Z,95891.86
2018-12-26T04:02:45.204Z,95900.66
2018-12-26T04:05:18.360Z,95890.82
2018-12-26T04:07:51.087Z,95901.78
2018-12-26T04:10:24.283Z,95901.66
2018-12-26T04:12:59.746Z,95900.51
2018-12-26T04:15:33.535Z,95905.69
2018-12-26T04:18:14.879Z,95907.77
2018-12-26T04:20:43.513Z,95904.44
2018-12-26T04:23:14.960Z,95905.38
2018-12-26T04:25:46.214Z,95900.05
2018-12-26T04:28:18.995Z,95894.84
2018-12-26T04:30:52.886Z,95898.31
2018-12-26T04:33:29.697Z,95903.67
2018-12-26T04:36:00.160Z,95906.30
2018-12-26T04:38:31.333Z,95912.23
2018-12-26T04:41:02.488Z,95917.77
2018-12-26T04:43:34.704Z,95921.96
2018-12-26T04:46:11.486Z,95926.70
2018-12-26T04:48:42.718Z,95927.38
2018-12-26T04:51:15.506Z,95921.23
2018-12-26T04:53:47.926Z,95918.34
2018-12-26T04:56:21.284Z,95911.73
2018-12-26T04:58:52.398Z,95911.86
2018-12-26T05:01:26.434Z,95911.54
2018-12-26T05:03:59.560Z,95923.95
2018-12-26T05:06:39.601Z,95922.66
2018-12-26T05:09:06.058Z,95922.50
2018-12-26T05:11:40.349Z,95923.34
2018-12-26T05:14:13.329Z,95913.86
2018-12-26T05:16:48.362Z,95922.86
2018-12-26T05:19:19.651Z,95924.16
2018-12-26T05:21:50.789Z,95937.56
2018-12-26T05:24:23.757Z,95947.63
2018-12-26T05:26:54.975Z,95956.17
2018-12-26T05:29:27.314Z,95961.64
2018-12-26T05:31:59.867Z,95956.55
2018-12-26T05:34:31.042Z,95964.73
2018-12-26T05:37:05.957Z,95960.59
2018-12-26T05:39:37.502Z,95962.88
2018-12-26T05:42:11.893Z,95964.73
2018-12-26T05:44:44.798Z,95968.33
2018-12-26T05:47:16.013Z,95965.43
2018-12-26T05:49:48.710Z,95974.92
2018-12-26T05:52:19.878Z,95970.06
2018-12-26T05:54:51.046Z,95977.67
2018-12-26T05:57:23.753Z,95976.90
2018-12-26T05:59:54.918Z,95975.16
2018-12-26T06:02:27.593Z,95976.43
2018-12-26T06:05:00.584Z,95983.98
2018-12-26T06:07:37.165Z,95987.23
2018-12-26T06:10:06.475Z,95984.89
2018-12-26T06:12:39.286Z,95989.72
2018-12-26T06:15:15.663Z,95996.91
2018-12-26T06:17:49.089Z,95997.10
2018-12-26T06:20:21.741Z,95999.66
2018-12-26T06:22:55.755Z,95997.10
2018-12-26T06:25:30.857Z,96001.36
2018-12-26T06:28:09.036Z,96007.93
2018-12-26T06:30:41.427Z,96000.94
2018-12-26T06:33:14.362Z,96005.42
2018-12-26T06:35:47.398Z,96004.73
2018-12-26T06:38:19.780Z,96008.32
2018-12-26T06:40:52.445Z,96007.93
2018-12-26T06:43:24.975Z,96008.59
2018-12-26T06:45:58.818Z,96014.73
2018-12-26T06:48:35.202Z,96011.67
2018-12-26T06:51:08.719Z,96009.19
2018-12-26T06:53:42.486Z,96015.69
2018-12-26T06:56:16.782Z,96018.26
2018-12-26T06:58:51.945Z,96012.98
2018-12-26T07:01:27.232Z,96013.78
2018-12-26T07:03:59.530Z,96016.45
2018-12-26T07:06:35.498Z,96027.70
2018-12-26T07:09:10.126Z,96030.28
2018-12-26T07:11:46.594Z,96036.72
2018-12-26T07:14:22.898Z,96024.63
2018-12-26T07:16:56.163Z,96022.83
2018-12-26T07:19:27.545Z,96019.59
2018-12-26T07:21:58.617Z,96019.53
2018-12-26T07:24:31.595Z,96018.72
2018-12-26T07:27:02.576Z,96011.07
2018-12-26T07:29:37.554Z,96011.89
2018-12-26T07:32:08.547Z,96018.41
2018-12-26T07:34:52.487Z,96022.52
2018-12-26T07:37:38.803Z,96019.89
2018-12-26T07:40:27.540Z,96023.92
2018-12-26T07:43:38.100Z,96027.05
2018-12-26T07:46:17.855Z,96029.90
2018-12-26T07:48:59.634Z,96025.19
2018-12-26T07:51:33.928Z,96024.93
2018-12-26T07:54:24.315Z,96017.54
2018-12-26T07:57:04.285Z,96026.66
2018-12-26T07:59:39.279Z,96019.50
2018-12-26T08:02:18.518Z,96029.33
2018-12-26T08:05:12.428Z,96031.30
2018-12-26T08:07:46.640Z,96036.63
2018-12-26T08:10:22.051Z,96029.47
2018-12-26T08:13:07.323Z,96037.82
2018-12-26T08:15:53.554Z,96032.67
2018-12-26T08:18:40.704Z,96033.04
2018-12-26T08:21:33.853Z,96029.95
2018-12-26T08:24:17.033Z,96037.27
2018-12-26T08:27:07.930Z,96031.59
2018-12-26T08:30:20.773Z,96033.73
2018-12-26T08:33:09.707Z,96028.92
2018-12-26T08:35:54.114Z,96032.70
2018-12-26T08:38:28.744Z,96022.02
2018-12-26T08:41:11.031Z,96026.66
2018-12-26T08:44:02.435Z,96025.92
2018-12-26T08:47:10.308Z,96021.95
2018-12-26T08:49:37.267Z,96029.19
2018-12-26T08:52:32.093Z,96024.83
2018-12-26T08:55:22.382Z,96015.31
2018-12-26T08:58:12.388Z,96014.61
2018-12-26T09:00:54.192Z,96016.38
2018-12-26T09:03:34.041Z,96006.49
2018-12-26T09:06:08.308Z,96002.23
2018-12-26T09:08:54.671Z,96003.96
2018-12-26T09:11:44.630Z,96019.27
2018-12-26T09:14:33.847Z,96012.81
2018-12-26T09:17:24.878Z,95989.11
2018-12-26T09:20:10.492Z,96007.77
2018-12-26T09:22:45.452Z,96000.13
2018-12-26T09:25:48.956Z,95999.61
2018-12-26T09:28:30.753Z,95986.18
2018-12-26T09:34:13.697Z,95986.41
2018-12-26T09:36:41.570Z,95977.77
2018-12-26T09:39:19.947Z,95976.35
2018-12-26T09:42:03.538Z,95979.05
2018-12-26T09:45:00.828Z,95963.81
2018-12-26T09:47:47.718Z,95960.63
2018-12-26T09:50:29.997Z,95958.36
2018-12-26T09:53:07.785Z,95960.23
2018-12-26T09:55:44.069Z,95953.56
2018-12-26T09:58:20.947Z,95953.56
2018-12-26T10:00:59.143Z,95936.75
2018-12-26T10:03:43.844Z,95936.75
2018-12-26T10:06:20.122Z,95932.24
2018-12-26T10:08:56.318Z,95922.16
2018-12-26T10:11:34.494Z,95922.80
2018-12-26T10:14:17.317Z,95917.92
2018-12-26T10:16:53.411Z,95917.64
2018-12-26T10:19:31.413Z,95916.26
2018-12-26T10:22:27.539Z,95908.13
2018-12-26T10:25:04.036Z,95909.41
2018-12-26T10:27:48.187Z,95913.91
2018-12-26T10:30:34.533Z,95896.41
2018-12-26T10:33:11.971Z,95891.16
2018-12-26T10:35:47.485Z,95883.52
2018-12-26T10:38:18.672Z,95876.02
2018-12-26T10:41:18.820Z,95876.01
2018-12-26T10:43:54.895Z,95873.48
2018-12-26T10:46:32.554Z,95871.52
2018-12-26T10:49:13.835Z,95876.59
2018-12-26T10:51:52.756Z,95873.61
2018-12-26T10:54:27.295Z,95870.59
2018-12-26T10:57:04.382Z,95863.83
2018-12-26T10:59:54.142Z,95871.22
2018-12-26T11:02:33.981Z,95872.66
2018-12-26T11:05:09.571Z,95867.34
2018-12-26T11:07:44.491Z,95861.43
2018-12-26T11:11:00.547Z,95865.90
2018-12-26T11:13:38.006Z,95863.85
2018-12-26T11:16:15.796Z,95861.53
2018-12-26T11:18:50.057Z,95858.43
2018-12-26T11:21:27.720Z,95854.87
2018-12-26T11:24:04.498Z,95850.66
2018-12-26T11:26:44.662Z,95845.84
2018-12-26T11:29:22.266Z,95835.79
2018-12-26T11:31:55.358Z,95843.44
2018-12-26T11:34:38.564Z,95840.11
2018-12-26T11:37:13.409Z,95831.77
2018-12-26T11:39:55.557Z,95834.03
2018-12-26T11:46:27.292Z,95833.50
2018-12-26T11:48:57.571Z,95840.04
2018-12-26T11:51:42.195Z,95834.81
2018-12-26T11:54:13.342Z,95830.31
2018-12-26T11:56:44.475Z,95826.44
2018-12-26T11:59:15.526Z,95833.77
2018-12-26T12:01:46.852Z,95840.47
2018-12-26T12:04:17.947Z,95839.50
2018-12-26T12:06:49.286Z,95841.36
2018-12-26T12:09:20.572Z,95846.67
2018-12-26T12:11:52.326Z,95846.20
2018-12-26T12:14:24.837Z,95843.28
2018-12-26T12:16:56.348Z,95836.66
2018-12-26T12:19:27.617Z,95841.98
2018-12-26T12:21:58.843Z,95842.68
2018-12-26T12:24:29.823Z,95844.06
2018-12-26T12:27:01.024Z,95847.87
2018-12-26T12:29:36.019Z,95847.87
2018-12-26T12:32:05.536Z,95846.55
2018-12-26T12:34:36.776Z,95859.14
2018-12-26T12:37:08.228Z,95859.14
2018-12-26T12:39:39.718Z,95854.37
2018-12-26T12:42:11.146Z,95854.19
2018-12-26T12:44:42.571Z,95851.50
2018-12-26T12:47:13.737Z,95853.06
2018-12-26T12:49:45.121Z,95844.12
2018-12-26T12:52:16.444Z,95845.00
2018-12-26T12:54:48.510Z,95842.54
2018-12-26T12:57:19.850Z,95840.34
2018-12-26T12:59:51.443Z,95836.03
2018-12-26T13:02:22.676Z,95845.98
2018-12-26T13:04:54.178Z,95844.59
2018-12-26T13:07:25.517Z,95852.61
2018-12-26T13:09:56.649Z,95852.77
2018-12-26T13:12:27.927Z,95857.26
2018-12-26T13:14:59.226Z,95855.00
2018-12-26T13:17:30.521Z,95856.13
2018-12-26T13:20:01.840Z,95856.13
2018-12-26T13:22:33.031Z,95854.52
2018-12-26T13:25:04.478Z,95847.63
2018-12-26T13:27:35.704Z,95859.71
2018-12-26T13:30:08.536Z,95848.95
2018-12-26T13:32:39.719Z,95846.06
2018-12-26T13:35:10.979Z,95849.44
2018-12-26T13:37:45.095Z,95857.27
2018-12-26T13:40:16.287Z,95848.41
2018-12-26T13:42:47.690Z,95851.25
2018-12-26T13:45:18.871Z,95856.25
2018-12-26T13:47:49.917Z,95836.81
2018-12-26T13:50:21.201Z,95845.84
2018-12-26T13:52:52.463Z,95839.73
2018-12-26T13:55:23.633Z,95841.80
2018-12-26T13:57:55.061Z,95833.44
2018-12-26T14:00:26.285Z,95842.72
2018-12-26T14:02:57.586Z,95839.55
2018-12-26T14:05:30.195Z,95845.77
2018-12-26T14:08:01.462Z,95840.88
2018-12-26T14:10:32.654Z,95838.81
2018-12-26T14:13:03.814Z,95838.81
2018-12-26T14:15:35.071Z,95836.55
2018-12-26T14:18:06.319Z,95829.98
2018-12-26T14:20:37.504Z,95835.49
2018-12-26T14:23:08.673Z,95838.83
2018-12-26T14:25:39.930Z,95832.81
2018-12-26T14:28:11.124Z,95832.81
2018-12-26T14:30:42.449Z,95826.95
2018-12-26T14:33:14.752Z,95826.95
2018-12-26T14:35:52.265Z,95826.91
2018-12-26T14:38:23.511Z,95819.83
2018-12-26T14:40:54.844Z,95821.95
2018-12-26T14:43:25.959Z,95817.26
2018-12-26T14:45:57.255Z,95819.17
2018-12-26T14:48:28.647Z,95819.17
2018-12-26T14:50:59.686Z,95820.03
2018-12-26T14:53:30.808Z,95814.13
2018-12-26T14:56:02.099Z,95814.13
2018-12-26T14:58:33.316Z,95801.50
2018-12-26T15:01:04.766Z,95805.82
2018-12-26T15:03:35.913Z,95805.82
2018-12-26T15:06:07.251Z,95796.61
2018-12-26T15:08:38.433Z,95796.39
2018-12-26T15:11:09.611Z,95795.50
2018-12-26T15:13:42.529Z,95797.88
2018-12-26T15:16:13.820Z,95794.46
2018-12-26T15:18:45.176Z,95792.34
2018-12-26T15:21:16.497Z,95787.58
2018-12-26T15:23:47.551Z,95794.09
2018-12-26T15:26:18.876Z,95794.09
2018-12-26T15:28:50.098Z,95793.70
2018-12-26T15:31:21.487Z,95790.14
2018-12-26T15:33:52.811Z,95783.45
2018-12-26T15:36:24.181Z,95781.53
2018-12-26T15:38:55.361Z,95781.53
2018-12-26T15:41:26.656Z,95778.97
2018-12-26T15:43:57.879Z,95780.55
2018-12-26T15:46:29.097Z,95779.75
2018-12-26T15:49:03.774Z,95779.13
2018-12-26T15:51:35.060Z,95774.95
2018-12-26T15:54:06.279Z,95774.32
2018-12-26T15:56:38.629Z,95774.32
2018-12-26T15:59:09.859Z,95775.45
2018-12-26T16:01:41.248Z,95771.23
2018-12-26T16:04:12.777Z,95766.15
2018-12-26T16:06:43.880Z,95766.15
2018-12-26T16:09:15.240Z,95762.59
2018-12-26T16:11:46.555Z,95754.00
2018-12-26T16:14:18.044Z,95755.98
2018-12-26T16:16:49.161Z,95755.23
2018-12-26T16:19:20.446Z,95749.67
2018-12-26T16:21:51.653Z,95749.67
2018-12-26T16:24:22.864Z,95758.55
2018-12-26T16:26:54.073Z,95758.98
2018-12-26T16:29:25.385Z,95758.98
2018-12-26T16:31:56.615Z,95756.09
2018-12-26T16:34:30.479Z,95760.65
2018-12-26T16:37:02.813Z,95767.77
2018-12-26T16:39:36.062Z,95767.01
2018-12-26T16:42:07.420Z,95767.01
2018-12-26T16:44:38.717Z,95764.63
2018-12-26T16:47:09.887Z,95754.98
2018-12-26T16:49:41.236Z,95765.48
2018-12-26T16:52:12.483Z,95763.63
2018-12-26T16:54:43.815Z,95767.80
2018-12-26T16:57:15.040Z,95761.97
2018-12-26T16:59:46.302Z,95759.14
2018-12-26T17:02:17.580Z,95760.10
2018-12-26T17:04:48.753Z,95760.10
2018-12-26T17:07:19.984Z,95748.19
2018-12-26T17:09:51.524Z,95743.56
2018-12-26T17:12:22.722Z,95741.48
2018-12-26T17:14:53.937Z,95741.48
2018-12-26T17:17:25.192Z,95746.68
2018-12-26T17:19:56.492Z,95755.99
2018-12-26T17:22:27.815Z,95750.38
2018-12-26T17:24:58.975Z,95750.38
2018-12-26T17:27:30.204Z,95751.48
2018-12-26T17:30:01.514Z,95737.37
2018-12-26T17:32:32.739Z,95740.56
2018-12-26T17:35:04.026Z,95740.56
2018-12-26T17:37:35.283Z,95742.17
2018-12-26T17:40:07.209Z,95743.16
2018-12-26T17:42:38.522Z,95743.16
2018-12-26T17:45:09.783Z,95758.26
2018-12-26T17:47:41.022Z,95759.03
2018-12-26T17:50:57.971Z,95755.30
2018-12-26T17:54:12.720Z,95755.30
2018-12-26T17:56:56.886Z,95749.55
2018-12-26T17:59:39.551Z,95749.55
2018-12-26T18:02:21.308Z,95750.31
2018-12-26T18:04:52.668Z,95746.02
2018-12-26T18:07:23.854Z,95752.73
2018-12-26T18:09:54.983Z,95752.73
2018-12-26T18:12:26.253Z,95756.55
2018-12-26T18:14:59.790Z,95741.48
2018-12-26T18:17:31.252Z,95743.05
2018-12-26T18:20:02.515Z,95743.05
2018-12-26T18:22:34.007Z,95748.00
2018-12-26T18:25:05.492Z,95739.98
2018-12-26T18:27:37.000Z,95738.84
2018-12-26T18:30:12.115Z,95744.95
2018-12-26T18:32:43.340Z,95744.95
2018-12-26T18:35:14.637Z,95746.20
2018-12-26T18:37:46.043Z,95756.46
2018-12-26T18:40:17.371Z,95750.66
2018-12-26T18:42:49.046Z,95750.66
2018-12-26T18:45:20.314Z,95749.67
2018-12-26T18:47:52.970Z,95746.59
2018-12-26T18:50:24.181Z,95746.59
2018-12-26T18:52:55.388Z,95741.55
2018-12-26T18:55:26.593Z,95745.92
2018-12-26T18:57:58.104Z,95745.92
2018-12-26T19:00:29.614Z,95745.50
2018-12-26T19:03:01.113Z,95745.50
2018-12-26T19:05:32.243Z,95736.05
2018-12-26T19:08:03.668Z,95737.00
2018-12-26T19:10:34.906Z,95739.04
2018-12-26T19:13:06.066Z,95736.52
2018-12-26T19:15:37.312Z,95736.52
2018-12-26T19:18:08.623Z,95733.95
2018-12-26T19:20:39.896Z,95730.81
2018-12-26T19:23:11.315Z,95721.80
2018-12-26T19:25:43.583Z,95731.34
2018-12-26T19:28:14.862Z,95731.34
2018-12-26T19:30:46.002Z,95741.89
2018-12-26T19:33:17.285Z,95729.59
2018-12-26T19:35:48.486Z,95735.89
2018-12-26T19:38:19.742Z,95736.09
2018-12-26T19:40:51.019Z,95736.09
2018-12-26T19:43:22.054Z,95735.56
2018-12-26T19:45:53.705Z,95735.56
2018-12-26T19:48:25.974Z,95728.39
2018-12-26T19:50:57.315Z,95716.81
2018-12-26T19:53:28.650Z,95726.74
2018-12-26T19:56:00.062Z,95726.74
2018-12-26T19:58:31.329Z,95727.35
2018-12-26T20:01:02.505Z,95729.91
2018-12-26T20:03:33.745Z,95722.94
2018-12-26T20:06:05.117Z,95724.93
2018-12-26T20:08:36.590Z,95724.93
2018-12-26T20:11:07.755Z,95719.77
2018-12-26T20:13:38.946Z,95719.48
2018-12-26T20:16:12.273Z,95719.48
2018-12-26T20:18:43.531Z,95724.65
2018-12-26T20:21:14.751Z,95725.84
2018-12-26T20:23:45.928Z,95721.84
2018-12-26T20:26:17.154Z,95721.84
2018-12-26T20:28:48.356Z,95724.87
2018-12-26T20:31:19.887Z,95732.91
2018-12-26T20:33:51.058Z,95722.94
2018-12-26T20:36:22.372Z,95727.17
2018-12-26T20:38:53.694Z,95727.17
2018-12-26T20:41:24.910Z,95724.31
2018-12-26T20:43:56.334Z,95734.39
2018-12-26T20:46:27.552Z,95724.84
2018-12-26T20:48:58.830Z,95716.48
2018-12-26T20:51:30.148Z,95716.48
2018-12-26T20:54:01.414Z,95721.18
2018-12-26T20:56:32.718Z,95721.18
2018-12-26T20:59:03.995Z,95710.50
2018-12-26T21:01:35.133Z,95715.25
2018-12-26T21:04:06.540Z,95715.25
2018-12-26T21:06:37.755Z,95724.74
2018-12-26T21:09:08.966Z,95724.74
2018-12-26T21:11:40.093Z,95719.48
2018-12-26T21:14:11.276Z,95716.29
2018-12-26T21:16:42.658Z,95716.29
2018-12-26T21:19:13.963Z,95722.70
2018-12-26T21:21:45.183Z,95707.94
2018-12-26T21:24:16.605Z,95700.23
2018-12-26T21:26:47.811Z,95700.23
2018-12-26T21:29:19.135Z,95715.02
2018-12-26T21:31:50.473Z,95709.59
2018-12-26T21:34:21.645Z,95700.86
2018-12-26T21:36:52.908Z,95700.86
2018-12-26T21:39:23.992Z,95709.83
2018-12-26T21:41:55.190Z,95711.12
2018-12-26T21:44:26.421Z,95711.45
2018-12-26T21:46:57.735Z,95713.73
2018-12-26T21:49:29.235Z,95705.84
2018-12-26T21:52:01.476Z,95705.84
2018-12-26T21:54:32.707Z,95714.67
2018-12-26T21:57:04.026Z,95702.66
2018-12-26T21:59:35.193Z,95702.66
2018-12-26T22:02:06.307Z,95719.52
2018-12-26T22:04:37.495Z,95709.70
2018-12-26T22:07:08.614Z,95708.31
2018-12-26T22:09:39.825Z,95696.72
2018-12-26T22:12:10.930Z,95696.72
2018-12-26T22:14:42.267Z,95707.52
2018-12-26T22:17:13.575Z,95707.52
2018-12-26T22:19:44.799Z,95695.50
2018-12-26T22:22:16.024Z,95695.50
2018-12-26T22:24:47.218Z,95705.80
2018-12-26T22:27:18.542Z,95704.05
2018-12-26T22:29:49.817Z,95704.05
2018-12-26T22:32:20.968Z,95701.63
2018-12-26T22:34:53.248Z,95701.63
2018-12-26T22:37:24.576Z,95697.92
2018-12-26T22:39:55.825Z,95694.74
2018-12-26T22:42:27.117Z,95694.74
2018-12-26T22:44:58.441Z,95703.67
2018-12-26T22:47:29.758Z,95703.67
2018-12-26T22:50:01.113Z,95694.73
2018-12-26T22:52:33.418Z,95700.86
2018-12-26T22:55:04.810Z,95695.08
2018-12-26T22:57:35.895Z,95692.40
2018-12-26T23:00:11.653Z,95696.36
2018-12-26T23:02:42.864Z,95696.06
2018-12-26T23:05:14.170Z,95696.06
2018-12-26T23:07:45.594Z,95690.35
2018-12-26T23:10:16.795Z,95689.33
2018-12-26T23:12:49.118Z,95694.49
2018-12-26T23:15:20.411Z,95694.49
2018-12-26T23:17:51.659Z,95690.97
2018-12-26T23:20:22.854Z,95686.84
2018-12-26T23:22:53.944Z,95676.22
2018-12-26T23:25:25.328Z,95676.22
2018-12-26T23:27:56.717Z,95684.86
2018-12-26T23:30:27.882Z,95684.86
2018-12-26T23:32:59.087Z,95685.52
2018-12-26T23:35:30.817Z,95693.02
2018-12-26T23:38:03.002Z,95693.02
2018-12-26T23:40:34.167Z,95692.88
2018-12-26T23:43:05.266Z,95696.25
2018-12-26T23:45:36.605Z,95686.09
2018-12-26T23:48:07.783Z,95691.23
2018-12-26T23:50:38.924Z,95691.38
2018-12-26T23:53:10.125Z,95691.38
2018-12-26T23:55:41.422Z,95696.02
2018-12-26T23:58:12.474Z,95696.02
